createdAt,value
2018-06-19T00:01:50.831Z,24.40
2018-06-19T00:04:28.073Z,24.30
2018-06-19T00:07:06.030Z,24.20
2018-06-19T00:09:43.602Z,24.30
2018-06-19T00:12:20.851Z,24.30
2018-06-19T00:14:58.007Z,24.20
2018-06-19T00:17:35.839Z,24.00
2018-06-19T00:20:14.403Z,23.90
2018-06-19T00:22:52.040Z,24.10
2018-06-19T00:25:29.144Z,24.10
2018-06-19T00:28:05.921Z,24.10
2018-06-19T00:30:43.976Z,24.10
2018-06-19T00:33:20.640Z,24.20
2018-06-19T00:35:58.879Z,24.10
2018-06-19T00:38:36.862Z,24.00
2018-06-19T00:41:15.302Z,24.00
2018-06-19T00:43:59.241Z,24.00
2018-06-19T00:46:38.031Z,24.00
2018-06-19T00:49:16.708Z,24.00
2018-06-19T00:51:59.267Z,23.90
2018-06-19T00:54:36.719Z,23.90
2018-06-19T00:57:13.892Z,23.90
2018-06-19T00:59:51.930Z,23.90
2018-06-19T01:02:29.618Z,23.90
2018-06-19T01:05:06.774Z,23.20
2018-06-19T01:07:44.040Z,23.80
2018-06-19T01:10:21.436Z,23.90
2018-06-19T01:12:58.224Z,23.80
2018-06-19T01:15:35.105Z,23.90
2018-06-19T01:18:12.058Z,23.80
2018-06-19T01:20:49.161Z,23.70
2018-06-19T01:23:26.112Z,23.70
2018-06-19T01:26:04.312Z,23.70
2018-06-19T01:28:41.088Z,23.50
2018-06-19T01:31:21.992Z,23.60
2018-06-19T01:33:59.092Z,23.70
2018-06-19T01:36:36.114Z,23.70
2018-06-19T01:39:13.015Z,23.80
2018-06-19T01:41:50.212Z,23.70
2018-06-19T01:44:26.985Z,23.70
2018-06-19T01:47:05.367Z,23.70
2018-06-19T01:49:41.731Z,23.60
2018-06-19T01:54:55.542Z,23.50
2018-06-19T01:57:32.873Z,23.40
2018-06-19T02:00:10.060Z,23.40
2018-06-19T02:02:46.639Z,23.40
2018-06-19T02:05:23.551Z,23.30
2018-06-19T02:08:00.673Z,23.30
2018-06-19T02:10:37.570Z,23.30
2018-06-19T02:13:14.332Z,23.30
2018-06-19T02:15:51.204Z,23.30
2018-06-19T02:18:28.203Z,23.30
2018-06-19T02:21:05.233Z,23.30
2018-06-19T02:23:42.269Z,23.30
2018-06-19T02:26:19.410Z,23.30
2018-06-19T02:28:56.066Z,23.30
2018-06-19T02:31:33.226Z,23.30
2018-06-19T02:34:09.978Z,23.30
2018-06-19T02:36:47.121Z,23.40
2018-06-19T02:39:23.896Z,23.50
2018-06-19T02:42:00.874Z,23.50
2018-06-19T02:44:38.160Z,23.50
2018-06-19T02:47:15.189Z,23.60
2018-06-19T02:52:29.459Z,23.50
2018-06-19T02:55:06.290Z,23.50
2018-06-19T02:57:43.422Z,23.40
2018-06-19T03:00:20.411Z,23.40
2018-06-19T03:02:57.239Z,23.40
2018-06-19T03:05:34.312Z,23.40
2018-06-19T03:08:11.331Z,23.40
2018-06-19T03:10:48.318Z,23.20
2018-06-19T03:13:35.078Z,23.30
2018-06-19T03:16:12.056Z,23.30
2018-06-19T03:18:49.245Z,23.20
2018-06-19T03:21:26.150Z,23.30
2018-06-19T03:24:03.003Z,23.40
2018-06-19T03:26:39.895Z,23.40
2018-06-19T03:29:18.187Z,23.30
2018-06-19T03:31:55.537Z,23.10
2018-06-19T03:34:32.795Z,23.10
2018-06-19T03:37:09.972Z,23.10
2018-06-19T03:39:48.011Z,23.20
2018-06-19T03:42:26.104Z,23.10
2018-06-19T03:47:39.793Z,23.30
2018-06-19T03:50:16.944Z,23.30
2018-06-19T03:52:54.715Z,23.30
2018-06-19T03:55:31.787Z,23.30
2018-06-19T03:58:08.620Z,23.40
2018-06-19T04:00:45.626Z,23.40
2018-06-19T04:03:23.585Z,23.30
2018-06-19T04:06:00.517Z,23.30
2018-06-19T04:08:37.450Z,23.30
2018-06-19T04:11:14.637Z,23.20
2018-06-19T04:13:52.771Z,23.20
2018-06-19T04:16:30.180Z,23.00
2018-06-19T04:19:07.172Z,23.00
2018-06-19T04:24:20.869Z,23.00
2018-06-19T04:26:58.424Z,22.90
2018-06-19T04:29:35.725Z,23.00
2018-06-19T04:32:12.946Z,23.00
2018-06-19T04:34:49.628Z,23.00
2018-06-19T04:37:37.621Z,22.90
2018-06-19T04:40:14.674Z,22.80
2018-06-19T04:42:51.661Z,22.80
2018-06-19T04:48:05.444Z,22.80
2018-06-19T04:50:42.714Z,22.80
2018-06-19T04:53:19.782Z,23.00
2018-06-19T04:55:56.622Z,23.10
2018-06-19T04:58:33.508Z,23.00
2018-06-19T05:03:46.836Z,23.00
2018-06-19T05:06:23.940Z,23.10
2018-06-19T05:11:38.035Z,23.00
2018-06-19T05:14:15.258Z,23.00
2018-06-19T05:16:51.753Z,22.90
2018-06-19T05:19:29.226Z,23.00
2018-06-19T05:22:06.654Z,23.00
2018-06-19T05:24:44.121Z,23.00
2018-06-19T05:27:20.519Z,23.10
2018-06-19T05:29:58.412Z,23.00
2018-06-19T05:32:49.352Z,23.00
2018-06-19T05:35:25.923Z,23.00
2018-06-19T05:38:02.959Z,23.00
2018-06-19T05:40:40.843Z,23.10
2018-06-19T05:43:17.936Z,23.10
2018-06-19T05:45:54.971Z,23.20
2018-06-19T05:48:32.240Z,24.10
2018-06-19T05:51:09.682Z,23.20
2018-06-19T05:53:46.797Z,23.20
2018-06-19T05:56:23.838Z,23.20
2018-06-19T05:59:01.234Z,23.30
2018-06-19T06:01:38.024Z,23.20
2018-06-19T06:04:14.959Z,23.30
2018-06-19T06:06:51.878Z,23.30
2018-06-19T06:09:28.933Z,23.40
2018-06-19T06:12:06.688Z,23.40
2018-06-19T06:14:43.344Z,23.50
2018-06-19T06:17:20.331Z,23.50
2018-06-19T06:22:33.492Z,23.60
2018-06-19T06:25:10.145Z,23.70
2018-06-19T06:27:47.365Z,23.70
2018-06-19T06:30:24.220Z,23.50
2018-06-19T06:33:01.257Z,23.50
2018-06-19T06:35:38.463Z,23.60
2018-06-19T06:38:16.364Z,23.70
2018-06-19T06:40:53.359Z,23.80
2018-06-19T06:43:30.448Z,23.70
2018-06-19T06:46:07.049Z,23.80
2018-06-19T06:48:43.993Z,23.80
2018-06-19T06:51:20.910Z,24.00
2018-06-19T06:54:04.496Z,24.00
2018-06-19T06:56:41.421Z,24.20
2018-06-19T06:59:18.564Z,24.20
2018-06-19T07:01:55.476Z,24.20
2018-06-19T07:04:33.127Z,24.20
2018-06-19T07:07:11.583Z,24.30
2018-06-19T07:09:49.031Z,24.60
2018-06-19T07:12:26.275Z,24.50
2018-06-19T07:15:03.987Z,24.60
2018-06-19T07:17:41.384Z,24.80
2018-06-19T07:20:18.675Z,24.90
2018-06-19T07:22:55.484Z,25.10
2018-06-19T07:25:33.125Z,25.50
2018-06-19T07:28:13.633Z,26.70
2018-06-19T07:30:50.974Z,27.90
2018-06-19T07:36:04.373Z,29.60
2018-06-19T07:38:42.066Z,30.50
2018-06-19T07:41:18.866Z,31.40
2018-06-19T07:43:55.926Z,31.60
2018-06-19T07:46:32.893Z,31.70
2018-06-19T07:49:09.684Z,32.40
2018-06-19T07:51:47.588Z,33.20
2018-06-19T07:54:24.524Z,34.30
2018-06-19T07:59:38.299Z,34.10
2018-06-19T08:02:21.980Z,34.50
2018-06-19T08:04:59.679Z,34.70
2018-06-19T08:07:40.348Z,34.60
2018-06-19T08:10:17.514Z,33.10
2018-06-19T08:12:54.539Z,32.20
2018-06-19T08:15:31.464Z,33.20
2018-06-19T08:18:08.560Z,34.80
2018-06-19T08:20:45.092Z,35.10
2018-06-19T08:23:22.483Z,33.70
2018-06-19T08:26:00.771Z,34.60
2018-06-19T08:28:38.401Z,35.10
2018-06-19T08:31:15.264Z,35.00
2018-06-19T08:33:52.297Z,34.70
2018-06-19T08:36:29.365Z,33.30
2018-06-19T08:39:09.754Z,33.00
2018-06-19T08:41:47.043Z,32.30
2018-06-19T08:44:23.912Z,31.70
2018-06-19T08:47:00.807Z,32.20
2018-06-19T08:49:37.893Z,33.10
2018-06-19T08:54:51.524Z,33.20
2018-06-19T08:57:28.575Z,33.00
2018-06-19T09:00:05.691Z,33.90
2018-06-19T09:02:42.636Z,34.40
2018-06-19T09:05:20.185Z,34.50
2018-06-19T09:07:57.144Z,33.70
2018-06-19T09:10:33.788Z,32.90
2018-06-19T09:13:10.795Z,33.00
2018-06-19T09:15:48.001Z,33.10
2018-06-19T09:18:24.690Z,33.80
2018-06-19T09:21:01.636Z,33.20
2018-06-19T09:23:38.922Z,33.10
2018-06-19T09:26:16.620Z,33.80
2018-06-19T09:28:53.450Z,33.80
2018-06-19T09:31:30.643Z,33.30
2018-06-19T09:34:07.685Z,33.80
2018-06-19T09:36:45.545Z,35.60
2018-06-19T09:39:22.846Z,36.70
2018-06-19T09:42:00.894Z,36.70
2018-06-19T09:44:37.878Z,37.20
2018-06-19T09:47:15.202Z,37.80
2018-06-19T09:49:51.932Z,36.90
2018-06-19T09:52:30.545Z,36.00
2018-06-19T09:55:07.427Z,36.20
2018-06-19T09:57:44.629Z,35.20
2018-06-19T10:00:27.022Z,35.60
2018-06-19T10:03:04.567Z,35.80
2018-06-19T10:05:42.127Z,36.10
2018-06-19T10:08:19.268Z,35.10
2018-06-19T10:10:55.972Z,35.30
2018-06-19T10:13:33.003Z,35.50
2018-06-19T10:16:09.801Z,34.60
2018-06-19T10:21:23.502Z,34.70
2018-06-19T10:24:00.629Z,34.60
2018-06-19T10:26:37.781Z,34.90
2018-06-19T10:29:15.181Z,35.00
2018-06-19T10:31:51.693Z,34.70
2018-06-19T10:34:28.765Z,35.10
2018-06-19T10:37:05.766Z,35.50
2018-06-19T10:39:43.160Z,34.80
2018-06-19T10:42:19.576Z,34.90
2018-06-19T10:44:56.487Z,34.70
2018-06-19T10:47:34.398Z,35.10
2018-06-19T10:50:11.539Z,35.40
2018-06-19T10:52:48.770Z,35.80
2018-06-19T10:55:26.005Z,35.90
2018-06-19T10:58:02.780Z,35.20
2018-06-19T11:00:39.896Z,35.40
2018-06-19T11:03:16.628Z,35.30
2018-06-19T11:05:54.134Z,35.30
2018-06-19T11:08:31.129Z,36.10
2018-06-19T11:11:07.956Z,36.40
2018-06-19T11:13:44.964Z,37.10
2018-06-19T11:16:21.924Z,36.90
2018-06-19T11:18:58.780Z,37.00
2018-06-19T11:21:36.925Z,36.30
2018-06-19T11:24:14.602Z,35.60
2018-06-19T11:26:51.459Z,36.20
2018-06-19T11:29:28.348Z,36.00
2018-06-19T11:32:05.649Z,36.10
2018-06-19T11:34:42.892Z,36.30
2018-06-19T11:37:19.584Z,36.10
2018-06-19T11:42:33.533Z,35.90
2018-06-19T11:45:10.294Z,36.60
2018-06-19T11:47:47.303Z,36.40
2018-06-19T11:50:24.203Z,36.20
2018-06-19T11:53:01.129Z,36.40
2018-06-19T11:55:38.222Z,37.50
2018-06-19T11:58:15.510Z,37.50
2018-06-19T12:00:52.859Z,36.90
2018-06-19T12:06:07.566Z,36.90
2018-06-19T12:08:44.007Z,35.70
2018-06-19T12:11:20.803Z,35.00
2018-06-19T12:13:57.972Z,35.70
2018-06-19T12:16:35.506Z,35.50
2018-06-19T12:19:12.777Z,36.00
2018-06-19T12:22:09.709Z,37.20
2018-06-19T12:24:47.017Z,37.10
2018-06-19T12:27:23.557Z,36.50
2018-06-19T12:30:00.749Z,35.90
2018-06-19T12:32:38.284Z,36.50
2018-06-19T12:35:15.418Z,36.40
2018-06-19T12:37:52.366Z,36.90
2018-06-19T12:40:29.448Z,37.30
2018-06-19T12:43:06.268Z,37.80
2018-06-19T12:45:44.382Z,36.50
2018-06-19T12:48:20.995Z,36.10
2018-06-19T12:52:05.931Z,36.30
2018-06-19T12:55:21.148Z,36.40
2018-06-19T12:57:59.053Z,35.60
2018-06-19T13:00:36.390Z,34.90
2018-06-19T13:03:23.743Z,34.30
2018-06-19T13:06:11.806Z,33.60
2018-06-19T13:08:49.281Z,32.10
2018-06-19T13:11:26.304Z,30.80
2018-06-19T13:14:13.734Z,30.80
2018-06-19T13:17:01.633Z,30.30
2018-06-19T13:19:49.594Z,30.10
2018-06-19T13:22:26.501Z,30.10
2018-06-19T13:25:03.872Z,30.10
2018-06-19T13:27:41.281Z,30.00
2018-06-19T13:30:29.237Z,29.60
2018-06-19T13:33:06.497Z,29.50
2018-06-19T13:35:43.332Z,29.20
2018-06-19T13:38:20.057Z,29.10
2018-06-19T13:41:37.911Z,29.00
2018-06-19T13:44:25.629Z,29.40
2018-06-19T13:47:04.161Z,28.90
2018-06-19T13:49:41.246Z,28.80
2018-06-19T13:52:18.234Z,28.80
2018-06-19T13:55:04.688Z,29.10
2018-06-19T13:57:52.510Z,29.20
2018-06-19T14:00:29.823Z,29.20
2018-06-19T14:03:06.892Z,29.30
2018-06-19T14:05:44.238Z,29.50
2018-06-19T14:08:36.341Z,29.50
2018-06-19T14:11:23.795Z,29.60
2018-06-19T14:14:01.226Z,29.70
2018-06-19T14:16:37.935Z,29.50
2018-06-19T14:19:16.390Z,29.20
2018-06-19T14:21:54.828Z,29.10
2018-06-19T14:24:31.800Z,29.40
2018-06-19T14:27:08.832Z,29.20
2018-06-19T14:29:46.139Z,28.80
2018-06-19T14:32:22.996Z,29.20
2018-06-19T14:35:00.066Z,28.80
2018-06-19T14:37:37.113Z,28.70
2018-06-19T14:40:14.517Z,28.90
2018-06-19T14:42:52.042Z,29.20
2018-06-19T14:45:29.085Z,29.10
2018-06-19T14:48:05.865Z,29.00
2018-06-19T14:50:44.356Z,28.90
2018-06-19T14:53:21.616Z,28.80
2018-06-19T14:56:02.091Z,28.80
2018-06-19T14:58:39.087Z,28.80
2018-06-19T15:01:16.039Z,28.40
2018-06-19T15:03:52.815Z,28.40
2018-06-19T15:06:30.053Z,28.40
2018-06-19T15:09:10.357Z,28.40
2018-06-19T15:11:46.736Z,28.30
2018-06-19T15:14:23.829Z,28.10
2018-06-19T15:17:00.745Z,28.00
2018-06-19T15:19:37.605Z,27.90
2018-06-19T15:22:14.669Z,28.00
2018-06-19T15:24:51.660Z,27.90
2018-06-19T15:27:28.606Z,27.90
2018-06-19T15:30:05.600Z,27.90
2018-06-19T15:32:42.565Z,27.90
2018-06-19T15:35:19.562Z,27.80
2018-06-19T15:37:56.531Z,27.80
2018-06-19T15:40:33.584Z,27.80
2018-06-19T15:45:47.393Z,28.10
2018-06-19T15:48:24.354Z,28.10
2018-06-19T15:51:01.076Z,28.00
2018-06-19T15:53:38.429Z,27.70
2018-06-19T15:56:15.024Z,27.80
2018-06-19T15:58:51.926Z,27.80
2018-06-19T16:01:28.957Z,27.60
2018-06-19T16:04:05.891Z,27.50
2018-06-19T16:06:42.774Z,27.90
2018-06-19T16:09:19.988Z,27.90
2018-06-19T16:11:56.632Z,27.70
2018-06-19T16:14:33.554Z,27.60
2018-06-19T16:17:10.539Z,27.50
2018-06-19T16:19:47.671Z,27.60
2018-06-19T16:22:24.340Z,27.60
2018-06-19T16:25:01.725Z,27.70
2018-06-19T16:27:38.339Z,27.60
2018-06-19T16:30:15.392Z,27.80
2018-06-19T16:32:52.170Z,27.60
2018-06-19T16:35:29.328Z,27.60
2018-06-19T16:38:06.374Z,26.20
2018-06-19T16:40:43.188Z,27.70
2018-06-19T16:43:20.106Z,27.70
2018-06-19T16:45:56.988Z,27.60
2018-06-19T16:48:34.103Z,27.60
2018-06-19T16:51:10.508Z,27.50
2018-06-19T16:53:47.332Z,27.40
2018-06-19T16:56:24.396Z,27.40
2018-06-19T16:59:01.198Z,27.50
2018-06-19T17:01:38.211Z,27.50
2018-06-19T17:04:15.183Z,27.60
2018-06-19T17:06:52.565Z,27.40
2018-06-19T17:09:29.492Z,27.50
2018-06-19T17:12:06.404Z,27.40
2018-06-19T17:14:42.971Z,27.40
2018-06-19T17:17:19.905Z,27.30
2018-06-19T17:19:57.652Z,27.40
2018-06-19T17:22:34.293Z,27.50
2018-06-19T17:25:11.121Z,27.50
2018-06-19T17:27:47.948Z,27.30
2018-06-19T17:30:26.309Z,28.10
2018-06-19T17:33:02.720Z,27.10
2018-06-19T17:35:40.054Z,27.00
2018-06-19T17:38:16.994Z,27.00
2018-06-19T17:40:53.986Z,27.30
2018-06-19T17:43:30.857Z,26.50
2018-06-19T17:46:08.077Z,27.30
2018-06-19T17:48:44.596Z,27.40
2018-06-19T17:51:22.563Z,27.40
2018-06-19T17:54:00.477Z,27.30
2018-06-19T17:56:37.476Z,27.30
2018-06-19T17:59:14.243Z,27.30
2018-06-19T18:01:51.077Z,27.10
2018-06-19T18:04:28.429Z,27.10
2018-06-19T18:07:05.286Z,27.20
2018-06-19T18:09:43.286Z,27.10
2018-06-19T18:12:20.653Z,27.00
2018-06-19T18:14:57.774Z,27.00
2018-06-19T18:17:36.362Z,26.90
2018-06-19T18:20:13.368Z,27.00
2018-06-19T18:22:50.128Z,26.80
2018-06-19T18:25:26.861Z,26.80
2018-06-19T18:28:03.869Z,26.90
2018-06-19T18:30:40.657Z,26.90
2018-06-19T18:33:18.536Z,27.00
2018-06-19T18:35:55.603Z,26.60
2018-06-19T18:38:32.601Z,26.40
2018-06-19T18:41:09.504Z,26.20
2018-06-19T18:43:46.275Z,26.30
2018-06-19T18:46:23.743Z,26.50
2018-06-19T18:49:00.890Z,26.50
2018-06-19T18:51:38.362Z,26.40
2018-06-19T18:54:15.956Z,26.20
2018-06-19T18:56:54.098Z,26.30
2018-06-19T18:59:31.192Z,26.20
2018-06-19T19:02:08.189Z,26.40
2018-06-19T19:04:45.034Z,26.30
2018-06-19T19:07:21.988Z,26.20
2018-06-19T19:10:03.845Z,26.20
2018-06-19T19:12:40.591Z,26.30
2018-06-19T19:15:22.796Z,26.20
2018-06-19T19:18:04.145Z,26.10
2018-06-19T19:20:44.633Z,26.00
2018-06-19T19:23:21.251Z,26.00
2018-06-19T19:25:58.291Z,26.00
2018-06-19T19:28:39.828Z,25.90
2018-06-19T19:31:16.733Z,26.00
2018-06-19T19:33:54.322Z,26.00
2018-06-19T19:36:35.920Z,25.90
2018-06-19T19:39:17.573Z,25.70
2018-06-19T19:41:54.380Z,25.50
2018-06-19T19:44:31.907Z,25.50
2018-06-19T19:49:21.356Z,25.40
2018-06-19T19:51:58.850Z,25.50
2018-06-19T19:54:36.073Z,25.60
2018-06-19T19:57:18.064Z,25.50
2018-06-19T19:59:56.259Z,25.50
2018-06-19T20:02:32.593Z,25.50
2018-06-19T20:05:10.690Z,25.40
2018-06-19T20:07:48.047Z,25.40
2018-06-19T20:10:25.210Z,25.30
2018-06-19T20:13:02.184Z,25.30
2018-06-19T20:15:39.827Z,25.40
2018-06-19T20:18:16.659Z,25.20
2018-06-19T20:20:53.560Z,25.10
2018-06-19T20:23:30.270Z,25.10
2018-06-19T20:26:07.337Z,25.20
2018-06-19T20:28:43.939Z,25.10
2018-06-19T20:31:21.533Z,25.10
2018-06-19T20:33:58.576Z,25.10
2018-06-19T20:36:36.074Z,25.10
2018-06-19T20:39:13.216Z,25.10
2018-06-19T20:41:50.894Z,25.20
2018-06-19T20:44:27.804Z,25.30
2018-06-19T20:49:41.404Z,25.30
2018-06-19T20:52:18.215Z,25.20
2018-06-19T20:54:56.261Z,25.10
2018-06-19T20:57:33.782Z,25.00
2018-06-19T21:00:10.590Z,25.10
2018-06-19T21:02:48.229Z,24.90
2018-06-19T21:05:26.407Z,24.80
2018-06-19T21:08:03.607Z,24.80
2018-06-19T21:10:41.234Z,24.70
2018-06-19T21:13:18.197Z,24.80
2018-06-19T21:15:56.407Z,24.60
2018-06-19T21:18:33.848Z,24.50
2018-06-19T21:21:11.290Z,24.70
2018-06-19T21:23:48.925Z,24.70
2018-06-19T21:26:26.154Z,24.70
2018-06-19T21:29:03.380Z,24.70
2018-06-19T21:31:40.180Z,24.70
2018-06-19T21:34:17.490Z,24.70
2018-06-19T21:36:54.283Z,24.70
2018-06-19T21:39:31.722Z,24.80
2018-06-19T21:42:08.735Z,24.80
2018-06-19T21:44:45.848Z,24.70
2018-06-19T21:47:23.012Z,24.80
2018-06-19T21:50:00.017Z,24.80
2018-06-19T21:52:36.553Z,24.80
2018-06-19T21:55:13.899Z,24.70
2018-06-19T21:57:50.987Z,24.70
2018-06-19T22:00:29.543Z,24.70
2018-06-19T22:03:06.619Z,24.80
2018-06-19T22:05:44.416Z,24.70
2018-06-19T22:08:27.354Z,24.70
2018-06-19T22:11:05.724Z,24.80
2018-06-19T22:13:45.334Z,24.80
2018-06-19T22:16:24.048Z,24.70
2018-06-19T22:19:01.694Z,24.80
2018-06-19T22:21:39.641Z,24.80
2018-06-19T22:24:16.924Z,24.80
2018-06-19T22:26:54.019Z,24.80
2018-06-19T22:29:30.556Z,24.80
2018-06-19T22:32:09.571Z,24.70
2018-06-19T22:34:46.882Z,24.70
2018-06-19T22:37:25.119Z,24.80
2018-06-19T22:40:02.230Z,24.80
2018-06-19T22:42:48.932Z,24.80
2018-06-19T22:45:25.985Z,24.80
2018-06-19T22:48:03.893Z,24.80
2018-06-19T22:50:41.071Z,24.80
2018-06-19T22:53:17.985Z,24.80
2018-06-19T22:55:55.744Z,24.70
2018-06-19T22:58:33.058Z,24.80
2018-06-19T23:01:11.037Z,24.60
2018-06-19T23:03:48.914Z,24.60
2018-06-19T23:09:04.761Z,24.60
2018-06-19T23:11:43.980Z,24.80
2018-06-19T23:14:21.425Z,24.60
2018-06-19T23:16:58.769Z,24.60
2018-06-19T23:19:36.547Z,24.60
2018-06-19T23:22:14.718Z,24.60
2018-06-19T23:24:52.389Z,24.70
2018-06-19T23:27:29.691Z,24.60
2018-06-19T23:30:08.418Z,24.60
2018-06-19T23:32:45.880Z,24.60
2018-06-19T23:35:22.963Z,24.50
2018-06-19T23:38:00.614Z,24.50
2018-06-19T23:40:39.079Z,24.40
2018-06-19T23:43:16.054Z,24.40
2018-06-19T23:45:52.691Z,24.40
2018-06-19T23:48:29.791Z,24.30
2018-06-19T23:51:06.844Z,24.30
2018-06-19T23:53:44.050Z,24.40
2018-06-19T23:56:21.532Z,24.40
2018-06-19T23:58:58.543Z,24.40
